Time;durP1;ratioP1;P1;durP2;ratioP2;P2;SDS_P1;SDS_P2;PMS_P1;PMS_P2;Temp;Humidity;BMP_temperature;BMP_pressure;BME280_temperature;BME280_humidity;BME280_pressure;Samples;Min_cycle;Max_cycle;Signal;HPM_P1;HPM_P2
2023/08/27 00:01:38;;;;;;;8.05;6.43;;;;;;;28.06;51.48;100374.47;5044351;28;20048;-59
2023/08/27 00:04:06;;;;;;;6.03;5.43;;;;;;;28.06;51.16;100369.03;5037903;28;20045;-59
2023/08/27 00:06:33;;;;;;;6.57;5.88;;;;;;;28.07;51.51;100371.53;5036652;28;20045;-59
2023/08/27 00:09:01;;;;;;;8.32;6.60;;;;;;;28.09;50.96;100368.63;5045689;28;20052;-50
2023/08/27 00:11:28;;;;;;;7.82;5.95;;;;;;;28.09;51.09;100355.03;5047187;28;20045;-49
2023/08/27 00:13:56;;;;;;;7.07;5.63;;;;;;;28.10;51.43;100360.25;5041511;28;20405;-49
2023/08/27 00:16:23;;;;;;;7.00;5.97;;;;;;;28.12;51.00;100359.25;5037772;28;20052;-48
2023/08/27 00:18:50;;;;;;;7.97;5.57;;;;;;;28.12;51.06;100351.91;5037351;28;20057;-49
2023/08/27 00:21:18;;;;;;;6.63;5.20;;;;;;;28.12;51.07;100351.91;5037459;28;20053;-49
2023/08/27 00:23:45;;;;;;;7.63;5.65;;;;;;;28.14;51.47;100332.66;5037313;28;20404;-48
2023/08/27 00:26:12;;;;;;;8.45;6.35;;;;;;;28.14;51.12;100325.31;5053050;28;20491;-51
2023/08/27 00:28:40;;;;;;;6.63;5.93;;;;;;;28.15;51.46;100309.84;5037389;28;20068;-50
2023/08/27 00:31:07;;;;;;;8.80;5.90;;;;;;;28.15;51.01;100307.94;5047535;28;20056;-50
2023/08/27 00:33:35;;;;;;;6.95;6.25;;;;;;;28.17;50.91;100326.81;5041239;28;20045;-49
2023/08/27 00:36:02;;;;;;;6.95;5.47;;;;;;;28.17;51.14;100321.38;5052627;28;20384;-49
2023/08/27 00:38:30;;;;;;;6.47;5.82;;;;;;;28.18;51.26;100337.47;5036112;28;20526;-49
2023/08/27 00:40:57;;;;;;;6.78;5.45;;;;;;;28.18;50.83;100325.75;5034885;28;20061;-48
2023/08/27 00:43:25;;;;;;;6.93;5.55;;;;;;;28.20;51.30;100332.69;5035871;28;20387;-49
2023/08/27 00:45:52;;;;;;;6.35;5.75;;;;;;;28.20;51.34;100324.53;5035786;28;20535;-49
2023/08/27 00:48:20;;;;;;;6.55;5.65;;;;;;;28.22;51.27;100324.31;5035593;28;20053;-48
2023/08/27 00:50:48;;;;;;;9.35;6.20;;;;;;;28.22;51.04;100314.25;5034679;28;20061;-50
2023/08/27 00:53:15;;;;;;;7.72;6.22;;;;;;;28.23;50.86;100328.72;5035214;28;20515;-53
2023/08/27 00:55:43;;;;;;;6.40;5.20;;;;;;;28.23;51.16;100332.25;5037530;28;20058;-51
2023/08/27 00:58:11;;;;;;;6.82;5.30;;;;;;;28.24;51.01;100325.81;5036849;28;20385;-52
2023/08/27 01:00:39;;;;;;;7.90;5.57;;;;;;;28.24;51.06;100327.69;5046258;28;20053;-50
2023/08/27 01:03:06;;;;;;;7.65;6.05;;;;;;;28.26;50.82;100325.59;5039047;28;20053;-51
2023/08/27 01:05:34;;;;;;;7.25;5.50;;;;;;;28.26;50.84;100320.97;5050932;28;20507;-51
2023/08/27 01:08:11;;;;;;;7.43;5.60;;;;;;;28.26;51.09;100315.53;5034859;28;20049;-58
2023/08/27 01:11:10;;;;;;;6.55;5.50;;;;;;;28.27;50.78;100317.22;5036507;28;20045;-59
2023/08/27 01:13:50;;;;;;;8.00;5.90;;;;;;;28.28;50.66;100321.63;5048691;28;20522;-59
2023/08/27 01:16:21;;;;;;;7.22;6.07;;;;;;;28.28;50.54;100315.34;5034718;28;20056;-59
2023/08/27 01:18:51;;;;;;;6.13;5.32;;;;;;;28.29;50.97;100315.13;5049355;28;20411;-50
2023/08/27 01:21:22;;;;;;;7.20;6.07;;;;;;;28.29;51.08;100303.41;5051371;28;20073;-53
2023/08/27 01:23:50;;;;;;;8.15;5.95;;;;;;;28.29;50.45;100304.25;5036307;28;20515;-49
2023/08/27 01:26:55;;;;;;;9.20;6.10;;;;;;;28.30;50.73;100297.75;5036758;28;20052;-50
2023/08/27 01:29:28;;;;;;;6.90;5.95;;;;;;;28.30;50.58;100294.19;5037268;28;20049;-50
2023/08/27 01:32:05;;;;;;;6.65;5.85;;;;;;;28.30;50.63;100297.75;5036005;28;20514;-50
2023/08/27 01:34:34;;;;;;;8.00;5.80;;;;;;;28.32;50.42;100303.00;5034771;28;20495;-51
2023/08/27 01:37:03;;;;;;;6.28;5.65;;;;;;;28.32;50.52;100303.00;5034697;28;20557;-50
2023/08/27 01:39:31;;;;;;;8.15;5.95;;;;;;;28.33;50.76;100308.25;5035010;28;20049;-59
2023/08/27 01:41:58;;;;;;;7.00;5.70;;;;;;;28.33;50.42;100310.97;5036180;28;20049;-59
2023/08/27 01:44:25;;;;;;;7.50;5.85;;;;;;;28.35;50.77;100308.03;5051046;28;20053;-58
2023/08/27 01:46:53;;;;;;;6.95;5.93;;;;;;;28.35;50.41;100314.31;5040571;28;20437;-58
2023/08/27 01:49:20;;;;;;;7.45;5.25;;;;;;;28.37;50.86;100319.59;5046578;28;20495;-59
2023/08/27 01:51:48;;;;;;;6.97;5.80;;;;;;;28.37;50.85;100322.31;5045448;28;20057;-58
2023/08/27 01:54:17;;;;;;;7.18;5.60;;;;;;;28.38;50.79;100324.00;5038125;28;20054;-58
2023/08/27 01:56:44;;;;;;;6.50;5.80;;;;;;;28.38;50.38;100323.16;5035953;28;20060;-58
2023/08/27 01:59:12;;;;;;;7.13;5.32;;;;;;;28.39;50.49;100330.28;5034458;28;20060;-58
2023/08/27 02:01:39;;;;;;;6.20;5.60;;;;;;;28.40;50.46;100321.06;5035434;28;20053;-58
2023/08/27 02:04:07;;;;;;;7.38;5.88;;;;;;;28.39;50.74;100317.50;5034146;28;20053;-59
2023/08/27 02:06:34;;;;;;;6.63;5.70;;;;;;;28.40;50.67;100307.44;5034101;28;20412;-58
2023/08/27 02:09:02;;;;;;;6.35;5.72;;;;;;;28.41;50.38;100306.41;5033332;28;20050;-59
2023/08/27 02:11:30;;;;;;;6.28;5.68;;;;;;;28.41;50.86;100304.53;5046721;28;20049;-59
2023/08/27 02:13:57;;;;;;;6.00;5.22;;;;;;;28.42;50.29;100299.91;5037231;28;20053;-58
2023/08/27 02:16:25;;;;;;;9.38;5.95;;;;;;;28.41;50.53;100296.38;5034942;28;20413;-59
2023/08/27 02:18:53;;;;;;;7.75;5.60;;;;;;;28.42;50.42;100289.88;5035430;28;20049;-49
2023/08/27 02:21:20;;;;;;;6.65;5.60;;;;;;;28.43;50.45;100280.66;5033368;28;20053;-49
2023/08/27 02:23:47;;;;;;;7.05;5.72;;;;;;;28.44;50.38;100273.31;5035149;28;20045;-50
2023/08/27 02:26:15;;;;;;;6.15;5.55;;;;;;;28.44;50.74;100274.19;5035360;28;20503;-49
2023/08/27 02:28:42;;;;;;;5.80;5.20;;;;;;;28.45;50.33;100280.47;5034058;28;20045;-59
2023/08/27 02:31:10;;;;;;;6.53;5.93;;;;;;;28.44;50.43;100285.06;5033264;28;20053;-58
2023/08/27 02:33:37;;;;;;;7.78;5.63;;;;;;;28.46;50.70;100285.69;5034452;28;20436;-59
2023/08/27 02:36:05;;;;;;;7.45;6.50;;;;;;;28.46;50.45;100269.34;5035389;28;20041;-59
2023/08/27 02:38:33;;;;;;;6.22;5.63;;;;;;;28.47;50.40;100267.47;5035220;28;20050;-50
2023/08/27 02:41:00;;;;;;;7.15;5.57;;;;;;;28.47;50.71;100262.84;5033242;28;20053;-50
2023/08/27 02:43:28;;;;;;;6.53;5.80;;;;;;;28.47;50.36;100273.75;5034438;28;20060;-50
2023/08/27 02:45:55;;;;;;;6.50;5.90;;;;;;;28.48;50.56;100272.72;5033593;28;20053;-51
2023/08/27 02:48:23;;;;;;;5.93;5.10;;;;;;;28.49;50.83;100281.72;5034842;28;20511;-49
2023/08/27 02:50:50;;;;;;;6.20;5.55;;;;;;;28.49;50.48;100289.91;5032496;28;20053;-48
2023/08/27 02:53:18;;;;;;;7.15;6.20;;;;;;;28.50;50.70;100294.28;5048067;28;20068;-50
2023/08/27 02:55:45;;;;;;;7.65;5.72;;;;;;;28.49;50.29;100293.47;5035734;28;20403;-50
2023/08/27 02:58:12;;;;;;;6.15;5.55;;;;;;;28.50;50.34;100299.75;5032812;28;20412;-59
2023/08/27 03:00:40;;;;;;;9.40;6.50;;;;;;;28.51;50.73;100279.63;5033184;28;20061;-59
2023/08/27 03:03:09;;;;;;;6.95;5.65;;;;;;;28.51;50.70;100274.19;5032504;28;20140;-59
2023/08/27 03:05:37;;;;;;;6.53;5.68;;;;;;;28.52;50.73;100290.31;5033616;28;20057;-59
2023/08/27 03:08:05;;;;;;;6.78;5.45;;;;;;;28.52;50.77;100286.75;5032136;28;20049;-49
2023/08/27 03:10:32;;;;;;;6.15;5.55;;;;;;;28.52;50.52;100293.06;5034408;28;20042;-48
2023/08/27 03:13:00;;;;;;;6.13;5.53;;;;;;;28.53;50.63;100289.28;5033462;28;20500;-48
2023/08/27 03:15:27;;;;;;;6.75;5.80;;;;;;;28.54;50.50;100273.78;5033126;28;20049;-49
2023/08/27 03:17:55;;;;;;;5.95;5.35;;;;;;;28.52;50.82;100263.09;5041078;28;20049;-50
2023/08/27 03:20:22;;;;;;;7.18;5.70;;;;;;;28.54;50.56;100269.16;5032280;28;20519;-49
2023/08/27 03:22:49;;;;;;;6.10;5.32;;;;;;;28.53;50.68;100278.38;5032961;28;20080;-50
2023/08/27 03:25:17;;;;;;;6.70;5.72;;;;;;;28.54;50.87;100276.50;5034641;28;20057;-50
2023/08/27 03:27:44;;;;;;;6.47;5.78;;;;;;;28.54;50.49;100285.50;5032026;28;20057;-58
2023/08/27 03:30:12;;;;;;;6.03;5.38;;;;;;;28.55;51.04;100273.56;5032740;28;20049;-59
2023/08/27 03:32:40;;;;;;;6.10;5.50;;;;;;;28.55;50.67;100259.09;5032102;28;20052;-58
2023/08/27 03:35:08;;;;;;;6.50;5.80;;;;;;;28.56;51.01;100258.91;5034623;28;20052;-59
2023/08/27 03:37:35;;;;;;;6.95;6.00;;;;;;;28.56;50.64;100272.53;5031903;28;20053;-49
2023/08/27 03:40:03;;;;;;;7.43;5.65;;;;;;;28.57;51.02;100281.53;5033837;28;20045;-51
2023/08/27 03:42:30;;;;;;;7.97;5.75;;;;;;;28.58;50.55;100283.22;5031818;28;20053;-50
2023/08/27 03:44:58;;;;;;;6.40;5.55;;;;;;;28.58;51.10;100286.75;5039908;28;20052;-51
2023/08/27 03:47:25;;;;;;;5.88;5.30;;;;;;;28.59;50.63;100298.50;5048228;28;20054;-49
2023/08/27 03:49:53;;;;;;;6.60;5.55;;;;;;;28.59;50.72;100290.31;5049472;28;20494;-59
2023/08/27 03:52:20;;;;;;;8.13;6.00;;;;;;;28.60;51.00;100289.28;5039307;28;20219;-59
2023/08/27 03:54:48;;;;;;;9.63;5.78;;;;;;;28.60;50.69;100278.38;5037078;28;20058;-60
2023/08/27 03:57:15;;;;;;;7.03;5.57;;;;;;;28.59;51.07;100285.72;5036092;28;20071;-60
2023/08/27 03:59:43;;;;;;;6.75;6.03;;;;;;;28.57;50.78;100279.66;5036324;28;20049;-58
2023/08/27 04:02:10;;;;;;;6.88;6.18;;;;;;;28.58;50.91;100283.22;5036546;28;20060;-58
2023/08/27 04:04:38;;;;;;;7.35;6.30;;;;;;;28.55;50.92;100279.00;5037328;28;20053;-58
2023/08/27 04:07:06;;;;;;;7.32;6.63;;;;;;;28.55;51.41;100292.63;5035816;28;20052;-58
2023/08/27 04:09:33;;;;;;;7.60;6.80;;;;;;;28.53;51.15;100286.56;5036171;28;20049;-58
2023/08/27 04:12:01;;;;;;;7.25;6.57;;;;;;;28.52;51.54;100276.72;5037523;28;20049;-57
2023/08/27 04:14:29;;;;;;;8.18;6.68;;;;;;;28.51;52.09;100266.84;5036136;28;20419;-58
2023/08/27 04:16:57;;;;;;;7.38;6.68;;;;;;;28.50;51.83;100273.34;5035402;28;20396;-58
2023/08/27 04:19:24;;;;;;;7.85;6.38;;;;;;;28.50;51.73;100267.06;5036224;28;20053;-58
2023/08/27 04:21:52;;;;;;;9.23;6.43;;;;;;;28.49;51.94;100274.41;5035561;28;20060;-58
2023/08/27 04:24:19;;;;;;;7.90;6.95;;;;;;;28.49;51.94;100274.41;5036318;28;20054;-58
2023/08/27 04:26:46;;;;;;;8.48;6.60;;;;;;;28.50;51.59;100273.34;5035223;28;20562;-58
2023/08/27 04:29:14;;;;;;;7.28;6.57;;;;;;;28.50;51.50;100273.34;5037305;28;20125;-58
2023/08/27 04:31:43;;;;;;;7.72;6.32;;;;;;;28.50;52.04;100284.22;5035636;28;20049;-58
2023/08/27 04:34:10;;;;;;;8.02;6.93;;;;;;;28.50;52.49;100264.34;5036343;28;20531;-58
2023/08/27 04:36:38;;;;;;;10.13;7.35;;;;;;;28.50;52.43;100267.91;5034831;28;20068;-58
2023/08/27 04:39:07;;;;;;;9.65;6.65;;;;;;;28.51;52.33;100276.91;5036241;28;20047;-59
2023/08/27 04:41:34;;;;;;;9.10;6.85;;;;;;;28.50;52.23;100259.72;5035139;28;20057;-58
2023/08/27 04:44:02;;;;;;;9.23;6.75;;;;;;;28.50;52.40;100259.72;5036045;28;20515;-58
2023/08/27 04:46:31;;;;;;;7.55;6.70;;;;;;;28.50;52.57;100262.44;5037017;28;20443;-58
2023/08/27 04:48:58;;;;;;;7.32;6.00;;;;;;;28.50;52.51;100254.28;5035140;28;20053;-58
2023/08/27 04:51:28;;;;;;;8.50;6.05;;;;;;;28.50;52.01;100259.72;5036985;28;20053;-58
2023/08/27 04:53:56;;;;;;;6.90;6.20;;;;;;;28.51;52.09;100252.38;5035748;28;20060;-58
2023/08/27 04:56:23;;;;;;;7.00;6.22;;;;;;;28.50;51.71;100243.38;5033815;28;20053;-58
2023/08/27 04:58:50;;;;;;;7.80;6.93;;;;;;;28.50;51.58;100243.38;5035631;28;20057;-60
2023/08/27 05:01:18;;;;;;;7.85;7.05;;;;;;;28.50;51.10;100245.28;5036643;28;20053;-60
2023/08/27 05:03:45;;;;;;;8.18;6.68;;;;;;;28.49;50.72;100227.25;5035432;28;20053;-60
2023/08/27 05:06:13;;;;;;;7.57;6.88;;;;;;;28.49;50.31;100219.94;5034421;28;20046;-60
2023/08/27 05:08:42;;;;;;;9.50;7.03;;;;;;;28.49;50.10;100228.09;5035183;28;20054;-58
2023/08/27 05:11:09;;;;;;;8.63;7.22;;;;;;;28.49;49.77;100230.81;5034295;28;20053;-57
2023/08/27 05:13:37;;;;;;;7.22;6.28;;;;;;;28.51;49.80;100220.56;5040798;28;20072;-58
2023/08/27 05:16:05;;;;;;;7.43;6.63;;;;;;;28.51;50.17;100219.72;5045251;28;20384;-58
2023/08/27 05:18:33;;;;;;;7.35;6.65;;;;;;;28.51;49.87;100209.66;5047722;28;20061;-60
2023/08/27 05:21:01;;;;;;;7.85;7.05;;;;;;;28.51;49.77;100217.81;5039168;28;20056;-60
2023/08/27 05:23:28;;;;;;;8.52;7.03;;;;;;;28.51;49.91;100219.72;5048816;28;20054;-61
2023/08/27 05:25:56;;;;;;;7.55;6.43;;;;;;;28.52;50.02;100227.69;5043913;28;20049;-60
2023/08/27 05:28:24;;;;;;;8.18;6.70;;;;;;;28.52;49.88;100235.88;5040891;28;20045;-58
2023/08/27 05:30:53;;;;;;;7.18;6.07;;;;;;;28.52;49.71;100230.41;5050759;28;20060;-58
2023/08/27 05:33:21;;;;;;;10.48;7.43;;;;;;;28.53;49.91;100223.91;5049075;28;20052;-58
2023/08/27 05:35:49;;;;;;;6.55;5.80;;;;;;;28.54;50.32;100219.31;5043571;28;20052;-58
2023/08/27 05:38:16;;;;;;;7.25;6.10;;;;;;;28.53;50.24;100213.03;5041415;28;20056;-60
2023/08/27 05:40:44;;;;;;;7.13;6.32;;;;;;;28.53;49.94;100204.03;5049227;28;20044;-60
2023/08/27 05:43:11;;;;;;;7.28;6.40;;;;;;;28.52;49.91;100199.59;5048467;28;20060;-60
2023/08/27 05:45:39;;;;;;;7.78;6.75;;;;;;;28.51;49.85;100204.22;5043513;28;20055;-60
2023/08/27 05:48:06;;;;;;;6.75;6.05;;;;;;;28.51;49.73;100203.38;5035710;28;20053;-60
2023/08/27 05:50:36;;;;;;;7.07;6.18;;;;;;;28.51;49.19;100203.38;5049101;28;20045;-60
2023/08/27 05:53:05;;;;;;;6.65;5.15;;;;;;;28.50;49.54;100198.97;5035495;28;20046;-60
2023/08/27 05:55:34;;;;;;;8.70;5.80;;;;;;;28.51;49.47;100209.66;5033875;28;20057;-60
2023/08/27 05:58:03;;;;;;;8.40;6.28;;;;;;;28.52;49.26;100216.81;5033662;28;20053;-60
2023/08/27 06:00:32;;;;;;;7.00;5.63;;;;;;;28.51;49.73;100220.56;5034699;28;20052;-60
2023/08/27 06:03:00;;;;;;;7.28;6.03;;;;;;;28.52;49.74;100214.06;5034190;28;20384;-60
2023/08/27 06:05:27;;;;;;;6.20;5.53;;;;;;;28.52;49.57;100224.97;5034256;28;20053;-60
2023/08/27 06:07:55;;;;;;;7.40;5.68;;;;;;;28.52;49.59;100214.06;5033528;28;20049;-58
2023/08/27 06:10:22;;;;;;;7.03;5.90;;;;;;;28.53;49.71;100217.63;5034155;28;20049;-58
2023/08/27 06:12:49;;;;;;;6.80;5.80;;;;;;;28.52;49.46;100211.34;5033196;28;20045;-57
2023/08/27 06:15:17;;;;;;;6.47;5.88;;;;;;;28.53;49.35;100213.03;5033891;28;20515;-57
2023/08/27 06:17:44;;;;;;;6.15;5.55;;;;;;;28.53;49.30;100223.91;5033502;28;20058;-58
2023/08/27 06:20:11;;;;;;;5.78;5.18;;;;;;;28.54;49.32;100227.47;5034035;28;20053;-57
2023/08/27 06:22:39;;;;;;;6.95;6.13;;;;;;;28.54;49.81;100216.59;5035827;28;20053;-58
2023/08/27 06:25:07;;;;;;;6.00;5.40;;;;;;;28.55;49.74;100223.69;5033036;28;20084;-57
2023/08/27 06:27:34;;;;;;;6.47;5.78;;;;;;;28.54;49.83;100222.03;5034415;28;20061;-59
2023/08/27 06:30:02;;;;;;;6.90;5.53;;;;;;;28.55;49.95;100221.81;5033504;28;20400;-60
2023/08/27 06:32:31;;;;;;;6.93;6.22;;;;;;;28.55;49.69;100220.97;5032860;28;20050;-60
2023/08/27 06:34:58;;;;;;;10.05;5.78;;;;;;;28.56;50.10;100228.09;5033615;28;20053;-60
2023/08/27 06:37:26;;;;;;;5.72;5.15;;;;;;;28.56;49.91;100218.06;5032730;28;20064;-58
2023/08/27 06:39:54;;;;;;;7.47;5.53;;;;;;;28.57;50.34;100218.91;5049253;28;20064;-57
2023/08/27 06:42:21;;;;;;;6.28;5.68;;;;;;;28.57;50.38;100217.00;5032798;28;20049;-57
2023/08/27 06:44:51;;;;;;;7.45;5.68;;;;;;;28.57;50.36;100219.72;5033797;28;20083;-58
2023/08/27 06:47:19;;;;;;;7.35;6.45;;;;;;;28.58;50.35;100221.41;5050286;28;20052;-58
2023/08/27 06:49:51;;;;;;;6.82;5.90;;;;;;;28.59;50.29;100212.19;5036990;28;20053;-60
2023/08/27 06:52:18;;;;;;;6.70;5.68;;;;;;;28.57;50.43;100208.84;5033265;28;20056;-60
2023/08/27 06:54:46;;;;;;;6.68;5.97;;;;;;;28.58;49.82;100194.16;5041636;28;20057;-60
2023/08/27 06:57:13;;;;;;;6.75;5.60;;;;;;;28.61;50.25;100192.94;5048569;28;20423;-60
2023/08/27 06:59:43;;;;;;;8.93;6.07;;;;;;;28.61;50.31;100194.81;5037414;28;20053;-60
2023/08/27 07:02:10;;;;;;;6.60;5.25;;;;;;;28.62;49.90;100196.47;5041328;28;20056;-60
2023/08/27 07:04:38;;;;;;;7.55;5.55;;;;;;;28.61;50.12;100192.09;5046131;28;20048;-60
2023/08/27 07:07:05;;;;;;;6.25;5.65;;;;;;;28.63;50.25;100200.88;5036372;28;20049;-60
2023/08/27 07:09:33;;;;;;;6.63;5.80;;;;;;;28.63;50.25;100189.97;5047432;28;20053;-60
2023/08/27 07:12:02;;;;;;;7.07;5.47;;;;;;;28.64;50.17;100183.47;5040937;28;20410;-59
2023/08/27 07:14:29;;;;;;;7.28;5.72;;;;;;;28.64;49.82;100178.03;5039184;28;20534;-59
2023/08/27 07:16:57;;;;;;;8.40;6.32;;;;;;;28.66;50.20;100190.41;5034285;28;20049;-60
2023/08/27 07:19:24;;;;;;;6.35;5.75;;;;;;;28.67;49.82;100191.25;5034226;28;20049;-57
2023/08/27 07:21:51;;;;;;;7.07;6.40;;;;;;;28.68;50.17;100198.34;5032086;28;20068;-57
2023/08/27 07:24:20;;;;;;;7.47;5.75;;;;;;;28.68;50.06;100192.91;5032617;28;20053;-58
2023/08/27 07:26:47;;;;;;;6.20;5.28;;;;;;;28.69;49.75;100202.78;5032321;28;20049;-57
2023/08/27 07:29:15;;;;;;;7.13;6.28;;;;;;;28.70;50.07;100199.00;5033285;28;20061;-59
2023/08/27 07:31:42;;;;;;;7.18;6.25;;;;;;;28.70;49.62;100197.09;5031865;28;20500;-59
2023/08/27 07:34:09;;;;;;;6.88;6.18;;;;;;;28.70;49.98;100199.84;5033872;28;20049;-60
2023/08/27 07:36:37;;;;;;;7.30;6.05;;;;;;;28.71;49.87;100197.94;5033445;28;20057;-60
2023/08/27 07:39:04;;;;;;;6.03;5.18;;;;;;;28.73;49.84;100190.41;5034516;28;20058;-58
2023/08/27 07:41:33;;;;;;;6.90;6.05;;;;;;;28.74;49.72;100183.91;5031901;28;20048;-57
2023/08/27 07:44:00;;;;;;;6.15;5.57;;;;;;;28.75;49.85;100174.69;5032651;28;20060;-57
2023/08/27 07:46:29;;;;;;;6.28;5.68;;;;;;;28.76;50.20;100181.81;5031801;28;20053;-57
2023/08/27 07:48:56;;;;;;;6.55;5.90;;;;;;;28.77;50.23;100178.06;5032828;28;20487;-59
2023/08/27 07:51:24;;;;;;;6.50;5.90;;;;;;;28.78;49.91;100177.84;5032063;28;20041;-60
2023/08/27 07:53:52;;;;;;;6.28;5.35;;;;;;;28.79;49.87;100182.22;5032795;28;20056;-59
2023/08/27 07:56:19;;;;;;;8.32;5.43;;;;;;;28.79;49.67;100168.59;5032040;28;20056;-59
2023/08/27 07:58:47;;;;;;;7.65;6.00;;;;;;;28.80;50.28;100172.16;5033344;28;20081;-59
2023/08/27 08:01:14;;;;;;;7.18;5.88;;;;;;;28.79;49.67;100162.31;5032628;28;20054;-60
2023/08/27 08:03:42;;;;;;;7.03;6.32;;;;;;;28.78;49.85;100172.38;5032589;28;20053;-59
2023/08/27 08:06:09;;;;;;;7.57;6.22;;;;;;;28.77;49.47;100172.59;5033695;28;20056;-59
2023/08/27 08:08:37;;;;;;;8.98;6.25;;;;;;;28.76;49.75;100170.91;5033938;28;20483;-57
2023/08/27 08:11:04;;;;;;;8.25;6.50;;;;;;;28.75;49.44;100175.53;5033367;28;20074;-57
2023/08/27 08:13:40;;;;;;;6.68;5.93;;;;;;;28.75;49.55;100171.97;5046196;28;20049;-57
2023/08/27 08:16:07;;;;;;;7.32;6.05;;;;;;;28.75;49.35;100172.78;5034880;28;20389;-58
2023/08/27 08:18:35;;;;;;;7.63;6.93;;;;;;;28.74;49.65;100170.28;5039187;28;20045;-60
2023/08/27 08:21:02;;;;;;;7.53;6.57;;;;;;;28.75;49.31;100174.69;5043087;28;20048;-60
2023/08/27 08:23:29;;;;;;;7.63;6.10;;;;;;;28.74;49.62;100165.69;5047019;28;20049;-60
2023/08/27 08:25:59;;;;;;;7.05;6.35;;;;;;;28.74;49.64;100156.66;5037097;28;20041;-60
2023/08/27 08:28:26;;;;;;;7.65;6.65;;;;;;;28.74;49.50;100153.94;5046869;28;20056;-58
2023/08/27 08:30:53;;;;;;;7.35;6.70;;;;;;;28.74;49.27;100156.66;5043549;28;20048;-58
2023/08/27 08:33:21;;;;;;;7.53;6.20;;;;;;;28.73;49.32;100161.28;5042547;28;20042;-57
2023/08/27 08:35:49;;;;;;;6.95;6.10;;;;;;;28.73;49.73;100164.00;5052566;28;20053;-58
2023/08/27 08:38:16;;;;;;;9.63;6.97;;;;;;;28.74;49.71;100162.13;5037345;28;20542;-60
2023/08/27 08:40:45;;;;;;;9.00;6.63;;;;;;;28.74;49.81;100173.00;5046784;28;20045;-60
2023/08/27 08:43:35;;;;;;;7.43;6.15;;;;;;;28.74;49.73;100173.00;5041806;28;20072;-60
2023/08/27 08:46:03;;;;;;;9.70;6.82;;;;;;;28.75;50.08;100177.41;5042445;28;20041;-60
2023/08/27 08:48:38;;;;;;;7.40;6.70;;;;;;;28.75;50.06;100185.59;5047030;28;20049;-60
2023/08/27 08:51:10;;;;;;;9.07;6.38;;;;;;;28.75;50.27;100200.03;5051255;28;20502;-60
2023/08/27 08:53:42;;;;;;;10.05;7.70;;;;;;;28.74;50.44;100197.53;5039850;28;20049;-60
2023/08/27 08:56:15;;;;;;;8.85;7.30;;;;;;;28.75;50.59;100201.94;5048369;28;20053;-55
2023/08/27 08:59:00;;;;;;;7.35;6.35;;;;;;;28.76;50.80;100195.44;5053412;28;20056;-58
2023/08/27 09:01:28;;;;;;;7.60;6.65;;;;;;;28.78;51.01;100198.78;5040657;28;20044;-58
2023/08/27 09:03:56;;;;;;;8.60;6.53;;;;;;;28.79;50.74;100200.47;5043027;28;20060;-58
2023/08/27 09:06:24;;;;;;;7.22;6.53;;;;;;;28.79;51.00;100205.91;5043799;28;20045;-59
2023/08/27 09:08:52;;;;;;;7.78;6.40;;;;;;;28.79;50.60;100195.84;5034967;28;20048;-61
2023/08/27 09:11:20;;;;;;;8.05;7.10;;;;;;;28.80;51.06;100202.13;5040818;28;20049;-63
2023/08/27 09:13:48;;;;;;;8.55;6.40;;;;;;;28.79;50.79;100212.19;5036535;28;20057;-64
2023/08/27 09:16:15;;;;;;;8.15;6.60;;;;;;;28.80;51.15;100210.31;5047155;28;20049;-61
2023/08/27 09:18:42;;;;;;;6.68;6.05;;;;;;;28.79;50.72;100228.53;5042832;28;20080;-61
2023/08/27 09:21:10;;;;;;;7.90;7.10;;;;;;;28.80;50.89;100224.78;5036377;28;20045;-63
2023/08/27 09:23:37;;;;;;;7.47;6.50;;;;;;;28.79;50.93;100223.09;5048635;28;20055;-59
2023/08/27 09:26:07;;;;;;;8.63;6.13;;;;;;;28.80;50.81;100219.34;5039915;28;20479;-60
2023/08/27 09:28:34;;;;;;;7.53;6.30;;;;;;;28.81;50.92;100212.00;5048462;28;20074;-60
2023/08/27 09:31:02;;;;;;;7.40;6.70;;;;;;;28.79;50.75;100212.19;5045196;28;20045;-59
2023/08/27 09:33:39;;;;;;;8.65;6.82;;;;;;;28.80;51.09;100218.47;5046754;28;20045;-60
2023/08/27 09:36:08;;;;;;;9.30;6.65;;;;;;;28.78;50.82;100210.53;5051848;28;20057;-59
2023/08/27 09:38:36;;;;;;;8.05;6.32;;;;;;;28.78;50.94;100198.78;5046670;28;20055;-59
2023/08/27 09:41:17;;;;;;;6.82;6.13;;;;;;;28.79;50.58;100195.00;5046978;28;20045;-60
2023/08/27 09:43:55;;;;;;;8.35;6.35;;;;;;;28.79;50.60;100195.84;5045126;28;20056;-62
2023/08/27 09:46:22;;;;;;;7.78;7.07;;;;;;;28.81;50.27;100193.75;5034005;28;20053;-64
2023/08/27 09:49:04;;;;;;;7.00;6.30;;;;;;;28.82;50.90;100186.44;5038344;28;20049;-59
2023/08/27 09:51:36;;;;;;;6.68;6.07;;;;;;;28.82;50.50;100200.88;5037899;28;20395;-60
2023/08/27 09:54:17;;;;;;;7.75;6.78;;;;;;;28.83;50.52;100205.28;5042962;28;20056;-60
2023/08/27 09:56:47;;;;;;;8.52;7.35;;;;;;;28.82;50.29;100192.72;5037711;28;20483;-60
2023/08/27 09:59:18;;;;;;;7.28;6.47;;;;;;;28.83;50.16;100196.25;5037916;28;20056;-59
2023/08/27 10:01:47;;;;;;;7.72;6.95;;;;;;;28.84;50.06;100200.66;5035862;28;20049;-59
2023/08/27 10:04:17;;;;;;;7.90;6.72;;;;;;;28.85;50.25;100204.25;5034857;28;20053;-59
2023/08/27 10:06:45;;;;;;;7.45;6.72;;;;;;;28.86;49.90;100206.75;5034330;28;20049;-60
2023/08/27 10:09:12;;;;;;;7.82;7.00;;;;;;;28.85;49.53;100204.25;5036028;28;20037;-58
2023/08/27 10:11:45;;;;;;;8.73;7.47;;;;;;;28.85;49.25;100215.97;5040021;28;20502;-60
2023/08/27 10:14:16;;;;;;;8.60;6.55;;;;;;;28.86;49.25;100214.94;5044397;28;20053;-60
2023/08/27 10:16:44;;;;;;;6.95;6.25;;;;;;;28.88;49.37;100221.00;5048215;28;20521;-60
2023/08/27 10:19:12;;;;;;;10.43;7.57;;;;;;;28.89;49.44;100213.69;5038483;28;20045;-60
2023/08/27 10:21:39;;;;;;;7.65;6.80;;;;;;;28.89;50.15;100224.59;5047254;28;20046;-61
2023/08/27 10:24:10;;;;;;;10.93;7.60;;;;;;;28.89;51.34;100230.03;5044513;28;20074;-60
2023/08/27 10:26:38;;;;;;;7.97;6.90;;;;;;;28.89;52.97;100233.59;5039770;28;20053;-60
2023/08/27 10:29:06;;;;;;;8.70;7.28;;;;;;;28.88;52.28;100229.16;5049530;28;20052;-61
2023/08/27 10:31:33;;;;;;;7.70;6.75;;;;;;;28.87;52.75;100241.13;5041352;28;20056;-61
2023/08/27 10:34:03;;;;;;;8.18;6.93;;;;;;;28.85;53.80;100220.59;5043340;28;20484;-61
2023/08/27 10:36:34;;;;;;;9.38;8.32;;;;;;;28.82;53.47;100222.69;5048329;28;20056;-60
2023/08/27 10:39:04;;;;;;;9.38;8.30;;;;;;;28.81;53.68;100214.72;5038027;28;20053;-63
2023/08/27 10:41:34;;;;;;;8.75;7.32;;;;;;;28.79;52.58;100214.91;5046467;28;20041;-59
2023/08/27 10:44:03;;;;;;;9.15;7.95;;;;;;;28.79;51.42;100209.47;5041356;28;20053;-59
2023/08/27 10:46:30;;;;;;;8.75;7.50;;;;;;;28.79;52.19;100209.47;5049172;28;20041;-58
2023/08/27 10:48:58;;;;;;;8.15;7.30;;;;;;;28.79;52.37;100200.47;5038764;28;20388;-58
2023/08/27 10:51:31;;;;;;;8.82;7.53;;;;;;;28.79;52.27;100197.72;5047709;28;20048;-58
2023/08/27 10:54:00;;;;;;;9.75;7.38;;;;;;;28.77;52.96;100197.13;5033617;28;20373;-58
2023/08/27 10:56:37;;;;;;;8.20;7.05;;;;;;;28.76;53.39;100185.41;5049055;28;20045;-58
2023/08/27 10:59:09;;;;;;;7.72;7.00;;;;;;;28.74;53.30;100182.03;5041034;28;20053;-61
2023/08/27 11:01:38;;;;;;;9.27;8.00;;;;;;;28.75;52.74;100177.41;5042204;28;20072;-60
2023/08/27 11:04:07;;;;;;;8.73;7.35;;;;;;;28.74;52.59;100168.41;5048712;28;20053;-61
2023/08/27 11:06:48;;;;;;;8.40;7.60;;;;;;;28.74;53.30;100164.84;5037930;28;20516;-59
2023/08/27 11:09:20;;;;;;;7.85;7.10;;;;;;;28.74;53.47;100148.50;5043337;28;20064;-58
2023/08/27 11:11:52;;;;;;;8.93;6.90;;;;;;;28.73;53.87;100152.28;5033529;28;20046;-59
2023/08/27 11:14:25;;;;;;;8.70;7.80;;;;;;;28.73;54.41;100161.28;5049063;28;20049;-58
2023/08/27 11:17:00;;;;;;;9.55;7.35;;;;;;;28.73;53.05;100163.19;5041183;28;20415;-58
2023/08/27 11:19:34;;;;;;;7.95;7.25;;;;;;;28.73;53.08;100152.28;5041356;28;20053;-59
2023/08/27 11:22:14;;;;;;;7.65;6.95;;;;;;;28.72;52.88;100151.41;5048983;28;20049;-63
2023/08/27 11:24:53;;;;;;;8.10;7.28;;;;;;;28.72;52.82;100135.06;5040641;28;20514;-61
2023/08/27 11:27:25;;;;;;;8.80;7.25;;;;;;;28.72;53.47;100137.78;5045632;28;20490;-60
2023/08/27 11:29:55;;;;;;;9.02;7.60;;;;;;;28.72;53.84;100136.97;5050725;28;20056;-59
2023/08/27 11:32:22;;;;;;;8.55;7.70;;;;;;;28.73;53.85;100146.84;5039178;28;20049;-59